createdAt,value
2017-07-21T00:02:04.015Z,99639
2017-07-21T00:04:32.286Z,99624
2017-07-21T00:16:02.985Z,99623
2017-07-21T00:18:31.576Z,99616
2017-07-21T00:20:59.838Z,99626
2017-07-21T00:29:06.574Z,99648
2017-07-21T00:31:36.223Z,99643
2017-07-21T00:34:04.493Z,99655
2017-07-21T00:36:32.730Z,99669
2017-07-21T00:39:01.034Z,99665
2017-07-21T00:44:30.056Z,99683
2017-07-21T00:49:58.991Z,99699
2017-07-21T00:55:41.785Z,99687
2017-07-21T00:58:10.805Z,99676
2017-07-21T01:00:39.032Z,99681
2017-07-21T01:03:07.311Z,99682
2017-07-21T01:05:36.325Z,99676
2017-07-21T01:08:04.555Z,99685
2017-07-21T01:10:32.827Z,99687
2017-07-21T01:13:01.044Z,99677
2017-07-21T01:21:30.939Z,99676
2017-07-21T01:23:59.165Z,99678
2017-07-21T01:26:28.189Z,99672
2017-07-21T01:28:56.443Z,99666
2017-07-21T01:34:25.584Z,99669
2017-07-21T01:39:53.974Z,99675
2017-07-21T01:42:22.576Z,99683
2017-07-21T01:44:50.810Z,99688
2017-07-21T01:53:20.522Z,99696
2017-07-21T01:55:48.830Z,99696
2017-07-21T02:07:41.495Z,99690
2017-07-21T02:10:09.767Z,99690
2017-07-21T02:12:41.760Z,99697
2017-07-21T02:18:12.032Z,99697
2017-07-21T02:20:43.556Z,99692
2017-07-21T02:23:11.830Z,99694
2017-07-21T02:25:40.126Z,99689
2017-07-21T02:40:11.302Z,99681
2017-07-21T02:45:40.901Z,99681
2017-07-21T02:51:10.365Z,99678
2017-07-21T02:56:39.109Z,99665
2017-07-21T02:59:07.368Z,99667
2017-07-21T03:01:36.365Z,99673
2017-07-21T03:04:04.677Z,99662
2017-07-21T03:06:32.908Z,99662
2017-07-21T03:15:04.291Z,99672
2017-07-21T03:17:45.488Z,99673
2017-07-21T03:20:13.754Z,99681
2017-07-21T03:28:44.314Z,99688
2017-07-21T03:31:13.419Z,99688
2017-07-21T03:33:42.469Z,99695
2017-07-21T03:39:11.720Z,99688
2017-07-21T03:41:40.823Z,99694
2017-07-21T03:47:09.920Z,99708
2017-07-21T03:49:38.185Z,99705
2017-07-21T03:55:06.690Z,99709
2017-07-21T03:57:34.971Z,99701
2017-07-21T04:03:03.987Z,99704
2017-07-21T04:11:41.689Z,99707
2017-07-21T04:14:09.963Z,99711
2017-07-21T04:16:38.294Z,99708
2017-07-21T04:19:07.377Z,99705
2017-07-21T04:21:36.379Z,99705
2017-07-21T04:24:04.650Z,99709
2017-07-21T04:26:43.205Z,99706
2017-07-21T04:29:11.762Z,99714
2017-07-21T04:31:40.023Z,99709
2017-07-21T04:34:09.061Z,99703
2017-07-21T04:36:37.310Z,99713
2017-07-21T04:39:05.576Z,99713
2017-07-21T04:41:34.626Z,99718
2017-07-21T04:44:02.902Z,99712
2017-07-21T04:46:31.179Z,99720
2017-07-21T04:48:59.474Z,99725
2017-07-21T04:51:27.851Z,99725
2017-07-21T04:56:56.656Z,99730
2017-07-21T04:59:25.776Z,99736
2017-07-21T05:07:55.551Z,99747
2017-07-21T05:10:23.819Z,99735
2017-07-21T05:12:52.074Z,99731
2017-07-21T05:18:41.042Z,99731
2017-07-21T05:24:40.951Z,99740
2017-07-21T05:33:11.238Z,99752
2017-07-21T05:38:40.920Z,99758
2017-07-21T05:41:09.173Z,99754
2017-07-21T05:52:39.465Z,99759
2017-07-21T05:55:07.727Z,99768
2017-07-21T05:57:44.378Z,99759
2017-07-21T06:00:13.508Z,99769
2017-07-21T06:02:41.784Z,99768
2017-07-21T06:05:10.998Z,99767
2017-07-21T06:07:39.361Z,99780
2017-07-21T06:13:07.970Z,99785
2017-07-21T06:24:38.414Z,99794
2017-07-21T06:27:07.483Z,99791
2017-07-21T06:29:42.432Z,99792
2017-07-21T06:35:11.375Z,99799
2017-07-21T06:37:39.721Z,99799
2017-07-21T06:40:08.740Z,99801
2017-07-21T06:48:38.145Z,99805
2017-07-21T06:51:07.226Z,99810
2017-07-21T07:02:37.779Z,99819
2017-07-21T07:05:06.025Z,99822
2017-07-21T07:07:34.334Z,99817
2017-07-21T07:10:02.688Z,99818
2017-07-21T07:15:31.385Z,99821
2017-07-21T07:18:00.455Z,99831
2017-07-21T07:23:30.277Z,99832
2017-07-21T07:25:58.565Z,99826
2017-07-21T07:28:42.150Z,99833
2017-07-21T07:31:10.407Z,99832
2017-07-21T07:36:39.644Z,99833
2017-07-21T07:45:18.608Z,99836
2017-07-21T07:50:47.464Z,99846
2017-07-21T07:53:15.726Z,99845
2017-07-21T07:58:44.675Z,99840
2017-07-21T08:07:21.438Z,99848
2017-07-21T08:13:07.735Z,99862
2017-07-21T08:21:47.048Z,99855
2017-07-21T08:27:38.494Z,99857
2017-07-21T08:42:09.155Z,99858
2017-07-21T08:44:37.482Z,99859
2017-07-21T08:50:05.440Z,99861
2017-07-21T08:55:42.454Z,99861
2017-07-21T08:58:10.733Z,99860
2017-07-21T09:00:39.002Z,99861
2017-07-21T09:03:07.307Z,99863
2017-07-21T09:05:35.542Z,99864
2017-07-21T09:08:03.791Z,99870
2017-07-21T09:10:32.069Z,99866
2017-07-21T09:13:00.397Z,99860
2017-07-21T09:15:28.722Z,99859
2017-07-21T09:18:02.844Z,99862
2017-07-21T09:20:31.077Z,99857
2017-07-21T09:23:00.092Z,99858
2017-07-21T09:25:28.431Z,99863
2017-07-21T09:27:56.675Z,99866
2017-07-21T09:30:24.967Z,99863
2017-07-21T09:32:53.300Z,99861
2017-07-21T09:35:21.563Z,99865
2017-07-21T09:37:49.853Z,99860
2017-07-21T09:40:18.157Z,99868
2017-07-21T09:42:46.736Z,99860
2017-07-21T09:45:23.283Z,99860
2017-07-21T09:47:51.570Z,99866
2017-07-21T09:50:19.809Z,99867
2017-07-21T09:52:48.871Z,99871
2017-07-21T09:55:17.107Z,99873
2017-07-21T09:58:01.833Z,99877
2017-07-21T10:00:30.912Z,99883
2017-07-21T10:03:00.562Z,99875
2017-07-21T10:05:28.894Z,99873
2017-07-21T10:07:57.198Z,99874
2017-07-21T10:10:26.205Z,99882
2017-07-21T10:12:54.479Z,99876
2017-07-21T10:15:22.780Z,99870
2017-07-21T10:17:51.031Z,99881
2017-07-21T10:20:19.282Z,99879
2017-07-21T10:22:48.369Z,99882
2017-07-21T10:25:16.630Z,99879
2017-07-21T10:27:44.900Z,99884
2017-07-21T10:30:13.189Z,99883
2017-07-21T10:32:41.463Z,99879
2017-07-21T10:35:09.728Z,99876
2017-07-21T10:37:37.992Z,99886
2017-07-21T10:42:43.562Z,99883
2017-07-21T10:45:11.862Z,99881
2017-07-21T10:47:40.917Z,99878
2017-07-21T10:50:09.165Z,99875
2017-07-21T10:52:37.463Z,99871
2017-07-21T10:55:05.733Z,99875
2017-07-21T10:57:33.994Z,99876
2017-07-21T11:00:02.287Z,99870
2017-07-21T11:02:30.547Z,99868
2017-07-21T11:04:58.898Z,99870
2017-07-21T11:07:27.971Z,99866
2017-07-21T11:09:56.235Z,99868
2017-07-21T11:12:24.577Z,99873
2017-07-21T11:14:52.849Z,99875
2017-07-21T11:17:21.110Z,99867
2017-07-21T11:19:49.449Z,99866
2017-07-21T11:22:17.788Z,99877
2017-07-21T11:24:46.028Z,99871
2017-07-21T11:27:16.130Z,99871
2017-07-21T11:29:45.191Z,99870
2017-07-21T11:38:14.501Z,99875
2017-07-21T11:41:01.985Z,99865
2017-07-21T11:43:30.324Z,99871
2017-07-21T11:46:02.155Z,99872
2017-07-21T11:48:30.495Z,99875
2017-07-21T11:50:59.769Z,99867
2017-07-21T11:53:28.039Z,99875
2017-07-21T11:55:57.283Z,99881
2017-07-21T11:58:26.374Z,99871
2017-07-21T12:00:54.643Z,99878
2017-07-21T12:03:22.963Z,99871
2017-07-21T12:05:51.229Z,99868
2017-07-21T12:08:19.486Z,99876
2017-07-21T12:10:48.534Z,99875
2017-07-21T12:13:16.762Z,99873
2017-07-21T12:15:45.150Z,99881
2017-07-21T12:18:14.232Z,99870
2017-07-21T12:20:42.793Z,99868
2017-07-21T12:23:11.112Z,99866
2017-07-21T12:25:39.351Z,99878
2017-07-21T12:31:09.502Z,99876
2017-07-21T12:33:38.498Z,99872
2017-07-21T12:36:06.779Z,99871
2017-07-21T12:38:35.488Z,99868
2017-07-21T12:41:03.758Z,99873
2017-07-21T12:43:32.020Z,99869
2017-07-21T12:46:01.052Z,99865
2017-07-21T12:48:29.316Z,99847
2017-07-21T12:53:41.580Z,99855
2017-07-21T12:56:09.824Z,99862
2017-07-21T13:01:38.764Z,99850
2017-07-21T13:04:07.007Z,99849
2017-07-21T13:06:35.248Z,99854
2017-07-21T13:09:03.556Z,99842
2017-07-21T13:11:31.811Z,99845
2017-07-21T13:14:00.056Z,99847
2017-07-21T13:16:29.118Z,99841
2017-07-21T13:21:57.348Z,99847
2017-07-21T13:24:26.353Z,99835
2017-07-21T13:27:01.350Z,99833
2017-07-21T13:29:29.637Z,99831
2017-07-21T13:31:57.889Z,99829
2017-07-21T13:34:26.510Z,99831
2017-07-21T13:36:54.763Z,99827
2017-07-21T13:39:23.001Z,99823
2017-07-21T13:41:51.288Z,99827
2017-07-21T13:44:19.525Z,99828
2017-07-21T13:47:01.049Z,99827
2017-07-21T13:49:29.310Z,99822
2017-07-21T13:52:01.275Z,99822
2017-07-21T13:54:29.540Z,99820
2017-07-21T13:56:57.819Z,99822
2017-07-21T13:59:26.521Z,99813
2017-07-21T14:01:54.780Z,99812
2017-07-21T14:04:23.035Z,99810
2017-07-21T14:06:51.369Z,99809
2017-07-21T14:09:19.615Z,99810
2017-07-21T14:11:47.878Z,99804
2017-07-21T14:14:16.140Z,99804
2017-07-21T14:16:44.428Z,99807
2017-07-21T14:19:12.803Z,99797
2017-07-21T14:21:41.065Z,99805
2017-07-21T14:24:09.345Z,99799
2017-07-21T14:26:37.694Z,99799
2017-07-21T14:29:05.957Z,99803
2017-07-21T14:31:34.262Z,99805
2017-07-21T14:37:03.198Z,99801
2017-07-21T14:39:31.477Z,99792
2017-07-21T14:41:59.748Z,99797
2017-07-21T14:44:28.063Z,99802
2017-07-21T14:46:56.355Z,99798
2017-07-21T14:49:25.464Z,99799
2017-07-21T14:51:54.109Z,99807
2017-07-21T14:54:22.634Z,99794
2017-07-21T14:57:02.093Z,99801
2017-07-21T14:59:30.424Z,99798
2017-07-21T15:02:01.954Z,99800
2017-07-21T15:04:30.284Z,99794
2017-07-21T15:06:58.558Z,99789
2017-07-21T15:09:26.858Z,99792
2017-07-21T15:12:01.229Z,99789
2017-07-21T15:14:29.534Z,99788
2017-07-21T15:16:57.923Z,99780
2017-07-21T15:19:26.231Z,99783
2017-07-21T15:21:54.505Z,99782
2017-07-21T15:24:23.752Z,99770
2017-07-21T15:26:52.007Z,99781
2017-07-21T15:29:20.323Z,99776
2017-07-21T15:31:48.609Z,99779
2017-07-21T15:34:16.892Z,99780
2017-07-21T15:36:45.611Z,99780
2017-07-21T15:39:13.871Z,99777
2017-07-21T15:41:42.215Z,99772
2017-07-21T15:44:10.579Z,99774
2017-07-21T15:46:41.888Z,99782
2017-07-21T15:49:10.189Z,99777
2017-07-21T15:51:38.469Z,99782
2017-07-21T15:54:06.725Z,99788
2017-07-21T15:56:42.488Z,99781
2017-07-21T15:59:11.505Z,99785
2017-07-21T16:01:40.231Z,99776
2017-07-21T16:04:08.644Z,99787
2017-07-21T16:06:43.828Z,99776
2017-07-21T16:09:12.071Z,99772
2017-07-21T16:11:40.302Z,99765
2017-07-21T16:14:09.790Z,99759
2017-07-21T16:17:01.584Z,99758
2017-07-21T16:19:59.992Z,99764
2017-07-21T16:22:28.317Z,99778
2017-07-21T16:24:56.576Z,99773
2017-07-21T16:27:24.906Z,99771
2017-07-21T16:29:53.174Z,99779
2017-07-21T16:32:21.460Z,99771
2017-07-21T16:34:49.820Z,99775
2017-07-21T16:40:18.475Z,99773
2017-07-21T16:42:46.774Z,99772
2017-07-21T16:45:15.023Z,99774
2017-07-21T16:47:43.915Z,99777
2017-07-21T16:53:13.336Z,99770
2017-07-21T16:55:43.148Z,99770
2017-07-21T16:58:41.745Z,99764
2017-07-21T17:01:09.982Z,99773
2017-07-21T17:04:01.555Z,99772
2017-07-21T17:06:43.835Z,99767
2017-07-21T17:09:12.138Z,99769
2017-07-21T17:12:06.297Z,99770
2017-07-21T17:15:01.123Z,99776
2017-07-21T17:17:30.145Z,99773
2017-07-21T17:20:00.481Z,99769
2017-07-21T17:22:59.117Z,99775
2017-07-21T17:25:27.346Z,99770
2017-07-21T17:27:55.591Z,99767
2017-07-21T17:30:23.866Z,99775
2017-07-21T17:32:52.862Z,99767
2017-07-21T17:35:21.119Z,99776
2017-07-21T17:37:49.420Z,99788
2017-07-21T17:40:17.663Z,99783
2017-07-21T17:42:46.816Z,99779
2017-07-21T17:45:15.119Z,99778
2017-07-21T17:47:43.372Z,99776
2017-07-21T17:50:11.666Z,99778
2017-07-21T17:53:00.610Z,99778
2017-07-21T17:55:28.872Z,99773
2017-07-21T17:57:57.181Z,99784
2017-07-21T18:00:26.031Z,99784
2017-07-21T18:08:56.213Z,99772
2017-07-21T18:17:53.228Z,99776
2017-07-21T18:20:21.490Z,99784
2017-07-21T18:22:49.742Z,99793
2017-07-21T18:25:18.026Z,99790
2017-07-21T18:27:56.113Z,99792
2017-07-21T18:30:24.500Z,99799
2017-07-21T18:32:52.750Z,99795
2017-07-21T18:35:21.031Z,99800
2017-07-21T18:37:50.302Z,99809
2017-07-21T18:40:18.551Z,99807
2017-07-21T18:42:46.776Z,99812
2017-07-21T18:48:15.746Z,99819
2017-07-21T18:53:45.045Z,99827
2017-07-21T18:56:13.319Z,99819
2017-07-21T18:58:41.574Z,99825
2017-07-21T19:01:10.648Z,99826
2017-07-21T19:03:38.930Z,99832
2017-07-21T19:06:07.170Z,99831
2017-07-21T19:08:35.551Z,99832
2017-07-21T19:11:03.769Z,99831
2017-07-21T19:13:32.054Z,99837
2017-07-21T19:16:00.430Z,99838
2017-07-21T19:18:28.690Z,99839
2017-07-21T19:20:56.947Z,99843
2017-07-21T19:23:39.612Z,99846
2017-07-21T19:26:07.849Z,99842
2017-07-21T19:28:36.383Z,99842
2017-07-21T19:31:04.716Z,99839
2017-07-21T19:33:32.947Z,99836
2017-07-21T19:36:01.190Z,99834
2017-07-21T19:44:44.403Z,99841
2017-07-21T19:50:13.583Z,99847
2017-07-21T20:01:44.193Z,99845
2017-07-21T20:04:12.409Z,99842
2017-07-21T20:09:45.733Z,99845
2017-07-21T20:12:13.979Z,99846
2017-07-21T20:15:09.239Z,99849
2017-07-21T20:20:38.201Z,99855
2017-07-21T20:29:07.908Z,99851
2017-07-21T20:31:36.171Z,99858
2017-07-21T20:34:04.444Z,99846
2017-07-21T20:36:33.995Z,99854
2017-07-21T20:39:02.416Z,99856
2017-07-21T20:44:31.178Z,99854
2017-07-21T20:47:00.198Z,99859
2017-07-21T20:49:41.781Z,99856
2017-07-21T20:58:41.211Z,99862
2017-07-21T21:04:10.015Z,99858
2017-07-21T21:09:39.327Z,99856
2017-07-21T21:12:08.326Z,99861
2017-07-21T21:14:37.350Z,99855
2017-07-21T21:20:06.813Z,99860
2017-07-21T21:25:35.505Z,99852
2017-07-21T21:28:03.742Z,99852
2017-07-21T21:33:33.324Z,99868
2017-07-21T21:36:31.684Z,99867
2017-07-21T21:38:59.987Z,99863
2017-07-21T21:41:28.988Z,99867
2017-07-21T21:43:58.037Z,99869
2017-07-21T21:49:26.831Z,99883
2017-07-21T21:51:55.161Z,99883
2017-07-21T21:54:23.436Z,99886
2017-07-21T21:56:51.718Z,99896
2017-07-21T21:59:40.727Z,99892
2017-07-21T22:14:11.686Z,99891
2017-07-21T22:16:39.959Z,99888
2017-07-21T22:19:08.190Z,99884
2017-07-21T22:33:17.150Z,99899
2017-07-21T22:35:46.202Z,99897
2017-07-21T22:38:15.126Z,99895
2017-07-21T22:43:44.042Z,99896
2017-07-21T22:55:16.133Z,99889
2017-07-21T23:00:45.247Z,99898
2017-07-21T23:03:13.475Z,99894
2017-07-21T23:05:42.496Z,99888
2017-07-21T23:14:11.869Z,99886
2017-07-21T23:16:40.130Z,99885
2017-07-21T23:19:08.399Z,99892
2017-07-21T23:21:36.694Z,99896
2017-07-21T23:24:04.975Z,99896
2017-07-21T23:29:33.303Z,99904
2017-07-21T23:32:02.324Z,99895
2017-07-21T23:34:30.587Z,99902
2017-07-21T23:42:59.584Z,99905
2017-07-21T23:45:27.843Z,99901
2017-07-21T23:47:56.098Z,99897
2017-07-21T23:59:25.351Z,99899
